TimeEST,TemperatureF,Dew PointF,Humidity,Sea Level PressureIn,VisibilityMPH,Wind Direction,Wind SpeedMPH,Gust SpeedMPH,PrecipitationIn,Events,Conditions,WindDirDegrees,DateUTC
12:14 AM,30.2,28.4,93,30.05,2.5,WSW,8.1,-,0.00,Snow,Light Snow,250,2013-01-01 05:14:00
12:35 AM,30.2,28.4,93,30.05,3.0,WSW,9.2,-,0.00,Snow,Light Snow,250,2013-01-01 05:35:00
12:46 AM,30.2,28.4,93,30.05,2.5,WSW,8.1,-,0.00,Snow,Light Snow,250,2013-01-01 05:46:00
12:56 AM,30.0,28.0,92,30.07,3.0,West,6.9,-,0.00,Snow,Light Snow,260,2013-01-01 05:56:00
1:06 AM,30.2,28.4,93,30.03,2.0,West,6.9,-,0.00,Snow,Light Snow,260,2013-01-01 06:06:00
1:35 AM,30.2,28.4,93,30.03,1.8,West,5.8,-,0.01,Snow,Light Snow,260,2013-01-01 06:35:00
1:42 AM,30.2,28.4,93,30.02,2.0,WSW,5.8,-,0.01,Snow,Light Snow,250,2013-01-01 06:42:00
1:56 AM,30.0,28.0,92,30.06,3.0,WSW,6.9,-,0.01,Snow,Light Snow,250,2013-01-01 06:56:00
2:56 AM,30.0,28.0,92,30.07,4.0,West,8.1,-,0.00,,Overcast,260,2013-01-01 07:56:00
3:56 AM,30.0,28.0,92,30.05,3.0,West,6.9,-,N/A,,Overcast,270,2013-01-01 08:56:00
4:15 AM,30.2,28.4,93,30.02,3.0,West,4.6,-,N/A,,Overcast,280,2013-01-01 09:15:00
4:45 AM,30.2,28.4,93,30.03,2.5,WNW,6.9,-,0.00,Snow,Light Snow,290,2013-01-01 09:45:00
4:56 AM,30.0,28.0,92,30.06,1.5,WNW,6.9,-,0.00,Snow,Light Snow,300,2013-01-01 09:56:00
5:04 AM,30.2,28.4,93,30.03,1.2,WNW,8.1,-,0.00,Snow,Light Snow,300,2013-01-01 10:04:00
5:14 AM,30.2,28.4,93,30.03,1.8,NW,5.8,-,0.00,Snow,Light Snow,310,2013-01-01 10:14:00
5:26 AM,28.4,28.4,100,30.04,2.0,WNW,5.8,-,0.00,Snow,Light Snow,300,2013-01-01 10:26:00
5:40 AM,28.4,28.4,100,30.04,2.5,NW,5.8,-,0.00,Snow,Light Snow,310,2013-01-01 10:40:00
5:56 AM,29.1,27.1,92,30.07,1.5,NW,4.6,-,0.00,Snow,Light Snow,310,2013-01-01 10:56:00
6:45 AM,28.4,26.6,93,30.04,2.0,WNW,3.5,-,0.01,Snow,Light Snow,300,2013-01-01 11:45:00
6:56 AM,29.1,27.1,92,30.08,3.0,NW,5.8,-,0.01,Snow,Light Snow,320,2013-01-01 11:56:00
7:23 AM,28.4,26.6,93,30.05,4.0,NNW,4.6,-,0.00,,Overcast,340,2013-01-01 12:23:00
7:56 AM,29.1,25.2,85,30.11,4.0,WNW,5.8,-,0.00,,Overcast,300,2013-01-01 12:56:00
8:03 AM,28.4,24.8,86,30.07,3.0,NW,6.9,-,N/A,,Overcast,310,2013-01-01 13:03:00
8:36 AM,28.4,24.8,86,30.07,2.5,NW,5.8,-,N/A,,Overcast,320,2013-01-01 13:36:00
8:56 AM,28.0,24.1,85,30.10,2.5,NNW,6.9,-,N/A,,Mostly Cloudy,330,2013-01-01 13:56:00
9:05 AM,26.6,24.8,93,30.07,2.5,NNW,6.9,-,N/A,,Mostly Cloudy,340,2013-01-01 14:05:00
9:14 AM,28.4,24.8,86,30.07,2.5,NNW,8.1,-,N/A,,Mostly Cloudy,340,2013-01-01 14:14:00
9:56 AM,28.0,24.1,85,30.11,2.5,North,9.2,-,N/A,,Overcast,350,2013-01-01 14:56:00
10:46 AM,26.6,21.2,80,30.09,3.0,North,11.5,-,N/A,,Haze,10,2013-01-01 15:46:00
10:56 AM,27.1,21.0,78,30.13,3.0,North,9.2,-,N/A,,Haze,10,2013-01-01 15:56:00
11:15 AM,26.6,21.2,80,30.09,4.0,North,8.1,-,N/A,,Haze,10,2013-01-01 16:15:00
11:56 AM,26.1,18.1,72,30.12,5.0,North,10.4,-,N/A,,Haze,360,2013-01-01 16:56:00
12:06 PM,26.6,17.6,69,30.09,5.0,North,10.4,-,N/A,,Haze,360,2013-01-01 17:06:00
12:56 PM,27.1,17.1,66,30.10,6.0,North,8.1,-,N/A,,Haze,360,2013-01-01 17:56:00
1:56 PM,26.1,16.2,66,30.10,6.0,North,8.1,-,N/A,,Haze,10,2013-01-01 18:56:00
2:56 PM,25.2,14.0,63,30.11,6.0,North,8.1,-,N/A,,Haze,360,2013-01-01 19:56:00
3:56 PM,24.1,15.1,69,30.13,6.0,NNW,8.1,-,N/A,,Haze,330,2013-01-01 20:56:00
4:56 PM,22.1,14.0,71,30.12,6.0,North,4.6,-,N/A,,Haze,350,2013-01-01 21:56:00
5:56 PM,19.0,12.0,74,30.14,7.0,Calm,Calm,-,N/A,,Clear,0,2013-01-01 22:56:00
6:56 PM,18.1,13.1,81,30.14,7.0,Calm,Calm,-,N/A,,Clear,0,2013-01-01 23:56:00
7:56 PM,16.2,12.0,84,30.14,6.0,North,4.6,-,N/A,,Clear,360,2013-01-02 00:56:00
8:56 PM,18.1,12.0,77,30.16,7.0,Calm,Calm,-,N/A,,Mostly Cloudy,0,2013-01-02 01:56:00
9:56 PM,16.2,12.0,84,30.19,6.0,Calm,Calm,-,N/A,,Overcast,0,2013-01-02 02:56:00
10:56 PM,17.1,12.0,81,30.17,6.0,Calm,Calm,-,N/A,,Haze,0,2013-01-02 03:56:00
11:56 PM,15.1,12.0,88,30.18,6.0,Calm,Calm,-,N/A,,Overcast,0,2013-01-02 04:56:00